createdAt,value
2022-10-23T18:44:17.389Z,88.74
2022-10-23T18:49:20.792Z,89.30
2022-10-23T18:54:23.621Z,89.63
2022-10-23T18:59:26.405Z,89.46
2022-10-23T19:04:31.719Z,89.44
2022-10-23T19:09:37.029Z,89.70
2022-10-23T19:14:40.415Z,89.89
2022-10-23T19:19:46.384Z,89.91
2022-10-23T19:24:54.926Z,90.12
2022-10-23T19:30:01.149Z,90.30
2022-10-23T19:35:04.331Z,90.44
2022-10-23T19:40:07.985Z,90.54
2022-10-23T19:45:14.040Z,90.71
2022-10-23T19:50:16.870Z,90.80
2022-10-23T19:55:19.618Z,90.73
2022-10-23T20:00:22.574Z,90.62
2022-10-23T20:05:25.409Z,90.60
2022-10-23T20:10:28.326Z,90.61
2022-10-23T20:15:31.174Z,90.61
2022-10-23T20:20:33.918Z,90.41
2022-10-23T20:25:37.017Z,90.02
2022-10-23T20:30:41.959Z,90.08
2022-10-23T20:35:44.834Z,90.06
2022-10-23T20:40:47.547Z,90.19
2022-10-23T20:45:50.594Z,90.12
2022-10-23T20:50:53.884Z,90.41
2022-10-23T20:55:56.732Z,90.75
2022-10-23T21:01:08.765Z,90.69
2022-10-23T21:06:13.926Z,90.52
2022-10-23T21:11:17.499Z,90.76
2022-10-23T21:16:24.903Z,91.17
2022-10-23T21:21:33.061Z,91.57
2022-10-23T21:26:36.166Z,91.62
2022-10-23T21:31:39.326Z,91.91
2022-10-23T21:37:10.930Z,92.11
2022-10-23T21:42:08.861Z,92.26
2022-10-23T21:47:11.675Z,92.42
2022-10-23T21:52:16.305Z,92.60
2022-10-23T21:57:21.894Z,92.88
2022-10-23T22:02:25.102Z,93.26
2022-10-23T22:12:31.528Z,93.14
2022-10-23T22:17:34.431Z,92.71
2022-10-23T22:22:37.612Z,92.81
2022-10-23T22:27:40.367Z,93.07
2022-10-23T22:32:43.549Z,93.38
2022-10-23T22:37:46.577Z,93.31
2022-10-23T22:42:49.276Z,93.76
2022-10-23T22:47:52.082Z,93.94
2022-10-23T22:52:55.336Z,94.30
2022-10-23T22:57:58.286Z,94.73
2022-10-23T23:03:01.141Z,94.84
2022-10-23T23:08:04.072Z,94.74
2022-10-23T23:13:07.218Z,94.65
2022-10-23T23:18:09.912Z,94.90
2022-10-23T23:23:14.216Z,94.82
2022-10-23T23:28:19.302Z,95.01
2022-10-23T23:33:23.944Z,95.11
2022-10-23T23:38:27.614Z,95.17
2022-10-23T23:43:30.717Z,95.29
2022-10-23T23:48:33.709Z,95.39
2022-10-23T23:53:36.533Z,95.61
2022-10-23T23:58:39.532Z,95.53
